Terminal Aerodrome Forecast
Issued by NWS Northern Indiana

Home | Current Version | Previous Version | Graphics & Text | Print | Product List | Glossary On
Versions: 1 2 3 4 5 6 7 8 9 10 11 12 13 14
349
FTUS43 KIWX 241139
TAFFWA
TAF
KFWA 241139Z 2412/2512 07008KT P6SM SCT008 OVC025
     FM241500 09010KT 6SM BR VCSH OVC008
     FM250300 35008KT P6SM OVC015=

USA.gov is the U.S. government's official web portal to all federal, state and local government web resources and services.